Terminal Aerodrome Forecast
Issued by NWS Charleston, WV

Current Version | Previous Version | Graphics & Text | Print | Product List | Glossary On
Versions: 1 2 3 4 5 6 7 8 9 10 11 12 13 14 15 16 17 18 19 20 21 22 23
263
FTUS41 KRLX 271724
TAFEKN
TAF
KEKN 271724Z 2718/2818 28007KT P6SM SCT050
     FM271900 32004KT P6SM VCTS BKN050CB
     FM272300 VRB03KT P6SM SCT060
     FM280900 00000KT 4SM BR SCT250
     FM281300 00000KT P6SM BKN250
     FM281600 VRB03KT P6SM BKN110=

USA.gov is the U.S. government's official web portal to all federal, state and local government web resources and services.